Metar Cercanos

 

LEPA - Palma De Mallorc, Spain
Distance from station: ONO 38km
Actualización: Tue, 31-Jan-2023 6:30pm CET
Few Clouds
Few Clouds
 Viento del ESE
Viento: ESE 7 km/h
Temperatura: 11°C
Rocío: 4°C
Humedad: 62%
Barómetro: 1027 hPa
Clouds: Few Clouds
Visibility: 10 km
Cloud details: Few Clouds 762 m
2023/01/31 17:30 LEPA 311730Z 12004KT 090V160 9999 FEW025 11/04 Q1027 NOSIG
LEMH - Mahon/Menorca Is, Spain
Distance from station: ENE 105km
Actualización: Tue, 31-Jan-2023 6:30pm CET
Few Clouds
Few Clouds
 Viento del NNO
Viento: NNO 13 km/h
Temperatura: 9°C
Sensación frio: 7°C
Rocío: 4°C
Humedad: 71%
Barómetro: 1026 hPa
Clouds: Few Clouds
Visibility: 10 km
Cloud details: Few Clouds 853 m
2023/01/31 17:30 LEMH 311730Z 34007KT 300V020 9999 FEW028 09/04 Q1026
 
LEIB - Ibiza/Es Codola, Spain
Distance from station: OSO 165km
Actualización: Tue, 31-Jan-2023 6:30pm CET
Despejado
Despejado
 Viento del ENE
Viento: ENE 7 km/h
Temperatura: 10°C
Sensación frio: 9°C
Rocío: 6°C
Humedad: 76%
Barómetro: 1027 hPa
Resumen: Despejado
Visibility: greater than 10 km
2023/01/31 17:30 LEIB 311730Z 07004KT CAVOK 10/06 Q1027 NOSIG
LEBL - Barcelona Airpor, Spain
Distance from station: NNO 225km
Actualización: Tue, 31-Jan-2023 6:30pm CET
Despejado
Despejado
 Viento del O
Viento: O 6 km/h
Temperatura: 10°C
Rocío: 3°C
Humedad: 62%
Barómetro: 1027 hPa
Resumen: Despejado
Visibility: greater than 10 km
2023/01/31 17:30 LEBL 311730Z 26003KT 240V310 CAVOK 10/03 Q1027 NOSIG
 
LEVC - Valencia (civ/Mi, Spain
Distance from station: NO 188km
Actualización: Tue, 31-Jan-2023 6:30pm CET
Despejado
Despejado
 Viento del E
Viento: E 7 km/h
Temperatura: 11°C
Rocío: 5°C
Humedad: 67%
Barómetro: 1027 hPa
Resumen: Despejado
Visibility: greater than 10 km
2023/01/31 17:30 LEVC 311730Z 08004KT 050V110 CAVOK 11/05 Q1027 NOSIG
LEGE - Gerona/Costa Bra, Spain
Distance from station: N 276km
Actualización: Tue, 31-Jan-2023 6:30pm CET
Despejado
Despejado
 Viento del SSO
Viento: SSO 6 km/h
Temperatura: 10°C
Rocío: 1°C
Humedad: 54%
Barómetro: 1027 hPa
Resumen: Despejado
Visibility: greater than 10 km
2023/01/31 17:30 LEGE 311730Z 21003KT 170V250 CAVOK 10/01 Q1027
 
LEAL - Alicante/El Alte, Spain
Distance from station: OSO 344km
Actualización: Tue, 31-Jan-2023 6:30pm CET
Despejado
Despejado
 Viento del E
Viento: E 11 km/h
Temperatura: 11°C
Rocío: 4°C
Humedad: 62%
Barómetro: 1027 hPa
Resumen: Despejado
Visibility: greater than 10 km
2023/01/31 17:30 LEAL 311730Z 08006KT CAVOK 11/04 Q1027 NOSIG
LEAM - Almeria Airport, Spain
Distance from station: SSO 56km
Actualización: Tue, 31-Jan-2023 6:30pm CET
Despejado
Despejado
 Viento del SO
Viento: SO 9 km/h
Temperatura: 13°C
Rocío: 5°C
Humedad: 59%
Barómetro: 1027 hPa
Resumen: Despejado
Visibility: greater than 10 km
2023/01/31 17:30 LEAM 311730Z 22005KT CAVOK 13/05 Q1027
 
LEZG - Zaragoza (mil/Ci, Spain
Distance from station: NO 431km
Actualización: Tue, 31-Jan-2023 6:30pm CET
Despejado
Despejado
 Viento del ONO
Viento: ONO 26 km/h
Temperatura: 10°C
Sensación frio: 7°C
Rocío: 3°C
Humedad: 62%
Barómetro: 1028 hPa
Resumen: Despejado
Visibility: greater than 10 km
2023/01/31 17:30 LEZG 311730Z 29014KT CAVOK 10/03 Q1028
LEMD - Madrid/Barajas, Spain
Distance from station: ONO 234km
Actualización: Tue, 31-Jan-2023 6:30pm CET
Despejado
Despejado
 Viento del varies
Viento: varies 4 km/h
Temperatura: 8°C
Rocío: -2°C
Humedad: 50%
Barómetro: 1026 hPa
Resumen: Despejado
Visibility: greater than 10 km
2023/01/31 17:30 LEMD 311730Z VRB02KT CAVOK 08/M02 Q1026 NOSIG
 
LEGR - Granada Airport, Spain
Distance from station: OSO 62km
Actualización: Tue, 31-Jan-2023 6:30pm CET
Despejado
Despejado
 Viento del SO
Viento: SO 6 km/h
Temperatura: 13°C
Rocío: -3°C
Humedad: 33%
Barómetro: 1026 hPa
Resumen: Despejado
Visibility: greater than 10 km
2023/01/31 17:30 LEGR 311730Z 22003KT 140V250 CAVOK 13/M03 Q1026
LEMG - Malaga (civ/Mil), Spain
Distance from station: OSO 227km
Actualización: Tue, 31-Jan-2023 6:30pm CET
Despejado
Despejado
 Viento del SE
Viento: SE 9 km/h
Temperatura: 11°C
Rocío: 5°C
Humedad: 67%
Barómetro: 1027 hPa
Resumen: Despejado
Visibility: greater than 10 km
2023/01/31 17:30 LEMG 311730Z 14005KT CAVOK 11/05 Q1027 NOSIG
 
LEZL - Sevilla (civ/Mil, Spain
Distance from station: S 318km
Actualización: Tue, 31-Jan-2023 6:30pm CET
Despejado
Despejado
 Viento del ENE
Viento: ENE 4 km/h
Temperatura: 16°C
Rocío: 1°C
Humedad: 36%
Barómetro: 1026 hPa
Resumen: Despejado
Visibility: greater than 10 km
2023/01/31 17:30 LEZL 311730Z 06002KT CAVOK 16/01 Q1026 NOSIG
LEVT - Vitoria, Spain
Distance from station: NO 226km
Actualización: Tue, 31-Jan-2023 6:30pm CET
Cubierto
Cubierto
 Viento del varies
Viento: varies 2 km/h
Temperatura: 6°C
Rocío: 4°C
Humedad: 87%
Barómetro: 1031 hPa
Clouds: Cubierto
Visibility: 6 km
Cloud details: Muy nuboso 457 m
Cubierto 762 m
2023/01/31 17:30 LEVT 311730Z VRB01KT 6000 BKN015 OVC025 06/04 Q1031
 
LEBB - Bilbao/Sondica, Spain
Distance from station: NNO 235km
Actualización: Tue, 31-Jan-2023 6:30pm CET
Light drizzle, Cubierto
Light drizzle, Cubierto
 Viento del NO
Viento: NO 15 km/h
Temperatura: 10°C
Sensación frio: 8°C
Rocío: 7°C
Humedad: 82%
Barómetro: 1033 hPa
Resumen: Light Drizzle
Clouds: Cubierto
Visibility: 8 km
Cloud details: Muy nuboso 610 m
Cubierto 945 m
2023/01/31 17:30 LEBB 311730Z 32008KT 280V350 8000 -DZ BKN020 OVC031 10/07 Q1033 TEMPO RA BKN010
LESO - San Sebastian/Fu, Spain
Distance from station: N 231km
Actualización: Tue, 31-Jan-2023 6:30pm CET
Parcialmente nuboso
Parcialmente nuboso
 Viento del OSO
Viento: OSO 7 km/h
Temperatura: 9°C
Sensación frio: 8°C
Rocío: 7°C
Humedad: 87%
Barómetro: 1032 hPa
Clouds: Parcialmente nuboso
Visibility: 10 km
Cloud details: Few Clouds 396 m
Parcialmente nuboso 1219 m
2023/01/31 17:30 LESO 311730Z 25004KT 210V280 9999 FEW013 SCT040 09/07 Q1032
 
LEVD - Valladolid(Mil/C, Spain
Distance from station: ONO 239km
Actualización: Tue, 31-Jan-2023 6:30pm CET
Despejado
Despejado
 Viento del NNE
Viento: NNE 15 km/h
Temperatura: 5°C
Sensación frio: 2°C
Rocío: 0°C
Humedad: 70%
Barómetro: 1029 hPa
Resumen: Despejado
Visibility: greater than 10 km
2023/01/31 17:30 LEVD 311730Z 03008KT CAVOK 05/M00 Q1029
LESA - Salamanca (civ/M, Spain
Distance from station: ONO 349km
Actualización: Tue, 31-Jan-2023 6:30pm CET
Despejado
Despejado
 Viento del E
Viento: E 9 km/h
Temperatura: 4°C
Sensación frio: 2°C
Rocío: -1°C
Humedad: 70%
Barómetro: 1029 hPa
Resumen: Despejado
Visibility: greater than 10 km
2023/01/31 17:30 LESA 311730Z 09005KT CAVOK 04/M01 Q1029
 
LEXJ - Santander/Paraya, Spain
Distance from station: NNO 247km
Actualización: Tue, 31-Jan-2023 6:30pm CET
Muy nuboso
Muy nuboso
 Viento del N
Viento: N 6 km/h
Temperatura: 11°C
Rocío: 5°C
Humedad: 67%
Barómetro: 1033 hPa
Clouds: Muy nuboso
Visibility: 10 km
Cloud details: Muy nuboso 1219 m
2023/01/31 17:30 LEXJ 311730Z 35003KT 320V030 9999 BKN040 11/05 Q1033
LEAS - Asturias/Aviles, Spain
Distance from station: NO 214km
Actualización: Tue, 31-Jan-2023 6:30pm CET
Despejado
Despejado
 Viento del E
Viento: E 7 km/h
Temperatura: 9°C
Sensación frio: 8°C
Rocío: 4°C
Humedad: 71%
Barómetro: 1032 hPa
Resumen: Despejado
Visibility: greater than 10 km
2023/01/31 17:30 LEAS 311730Z 08004KT 040V120 CAVOK 09/04 Q1032 NOSIG
 
LECO - La Coruna/Alvedr, Spain
Distance from station: ONO 222km
Actualización: Tue, 31-Jan-2023 6:30pm CET
Despejado
Despejado
 Viento del N
Viento: N 9 km/h
Temperatura: 11°C
Rocío: 5°C
Humedad: 67%
Barómetro: 1031 hPa
Resumen: Despejado
Visibility: greater than 10 km
2023/01/31 17:30 LECO 311730Z 01005KT 320V060 CAVOK 11/05 Q1031 NOSIG
LEVX - Vigo/Peinador, Spain
Distance from station: O 214km
Actualización: Tue, 31-Jan-2023 6:30pm CET
Despejado
Despejado
 Viento del ONO
Viento: ONO 7 km/h
Temperatura: 9°C
Sensación frio: 8°C
Rocío: 4°C
Humedad: 71%
Barómetro: 1029 hPa
Resumen: Despejado
Visibility: greater than 10 km
2023/01/31 17:30 LEVX 311730Z 29004KT 230V330 CAVOK 09/04 Q1029 NOSIG